VJC816 VVDN-VVTS
Flight info
| Callsign | VJC816 |
|---|---|
| Flight time | 1h 4m |
| Altitude | 36000 |
| Route | SADIN1A SADIN Q1 DOVIN DOVIN5Q |
| Aircraft | A321/M-SDE3FGHIRWY/LB1 |
Departure
| Time | 2026-04-23 07:48 |
|---|---|
| Airport | Da Nang International Airport (VVDN) |
Arrival
| Time | 2026-04-23 08:53 |
|---|---|
| Airport | Tan Son Nhat International Airport (VVTS) |
| Time | Latitude | Longitude | Altitude | Speed | Heading |
|---|---|---|---|---|---|
| 2026-04-23 07:22 | 16.05298 | 108.20180 | 32 ft | 0 kts | 83° |
| 2026-04-23 07:39 | 16.05296 | 108.20163 | 33 ft | 3 kts | 83° |
| 2026-04-23 07:39 | 16.05293 | 108.20142 | 32 ft | 3 kts | 82° |
| 2026-04-23 07:40 | 16.05290 | 108.20118 | 33 ft | 3 kts | 82° |
| 2026-04-23 07:40 | 16.05287 | 108.20093 | 33 ft | 3 kts | 79° |
| 2026-04-23 07:40 | 16.05282 | 108.20071 | 33 ft | 3 kts | 70° |
| 2026-04-23 07:40 | 16.05277 | 108.20059 | 32 ft | 2 kts | 40° |
| 2026-04-23 07:41 | 16.05267 | 108.20053 | 31 ft | 2 kts | 355° |
| 2026-04-23 07:41 | 16.05258 | 108.20054 | 31 ft | 0 kts | 351° |
| 2026-04-23 07:42 | 16.05262 | 108.20054 | 30 ft | 2 kts | 351° |
| 2026-04-23 07:42 | 16.05281 | 108.20051 | 33 ft | 4 kts | 352° |
| 2026-04-23 07:42 | 16.05307 | 108.20047 | 33 ft | 6 kts | 352° |
| 2026-04-23 07:42 | 16.05351 | 108.20041 | 32 ft | 6 kts | 352° |
| 2026-04-23 07:43 | 16.05385 | 108.20036 | 32 ft | 4 kts | 352° |
| 2026-04-23 07:43 | 16.05414 | 108.20032 | 33 ft | 6 kts | 352° |
| 2026-04-23 07:43 | 16.05472 | 108.20023 | 33 ft | 8 kts | 352° |
| 2026-04-23 07:43 | 16.05524 | 108.20015 | 33 ft | 8 kts | 352° |
| 2026-04-23 07:44 | 16.05601 | 108.20005 | 33 ft | 12 kts | 352° |
| 2026-04-23 07:44 | 16.05677 | 108.19994 | 33 ft | 10 kts | 352° |
| 2026-04-23 07:44 | 16.05743 | 108.19984 | 33 ft | 9 kts | 352° |
| 2026-04-23 07:44 | 16.05802 | 108.19975 | 33 ft | 9 kts | 351° |
| 2026-04-23 07:45 | 16.05866 | 108.19966 | 33 ft | 10 kts | 353° |
| 2026-04-23 07:45 | 16.05931 | 108.19956 | 33 ft | 9 kts | 352° |
| 2026-04-23 07:45 | 16.05939 | 108.19955 | 33 ft | 9 kts | 352° |
| 2026-04-23 07:46 | 16.05997 | 108.19947 | 33 ft | 8 kts | 352° |
| 2026-04-23 07:46 | 16.06032 | 108.19918 | 33 ft | 6 kts | 293° |
| 2026-04-23 07:46 | 16.06033 | 108.19883 | 33 ft | 4 kts | 266° |
| 2026-04-23 07:46 | 16.06027 | 108.19843 | 33 ft | 8 kts | 255° |
| 2026-04-23 07:47 | 16.05994 | 108.19811 | 33 ft | 6 kts | 199° |
| 2026-04-23 07:47 | 16.05960 | 108.19812 | 33 ft | 4 kts | 174° |
| 2026-04-23 07:47 | 16.05929 | 108.19816 | 33 ft | 8 kts | 172° |
| 2026-04-23 07:47 | 16.05698 | 108.19850 | 32 ft | 67 kts | 172° |
| 2026-04-23 07:48 | 16.05041 | 108.19945 | 33 ft | 122 kts | 172° |
| 2026-04-23 07:48 | 16.04048 | 108.20089 | 35 ft | 164 kts | 171° |
| 2026-04-23 07:48 | 16.02898 | 108.20263 | 497 ft | 165 kts | 170° |
| 2026-04-23 07:48 | 16.01750 | 108.20438 | 1014 ft | 169 kts | 171° |
| 2026-04-23 07:49 | 16.00575 | 108.20619 | 1442 ft | 174 kts | 167° |
| 2026-04-23 07:49 | 15.99305 | 108.20836 | 1671 ft | 195 kts | 169° |
| 2026-04-23 07:49 | 15.97903 | 108.21077 | 1837 ft | 214 kts | 168° |
| 2026-04-23 07:49 | 15.96363 | 108.21215 | 1975 ft | 232 kts | 182° |
| 2026-04-23 07:50 | 15.94674 | 108.21107 | 2148 ft | 256 kts | 183° |
| 2026-04-23 07:50 | 15.92828 | 108.21000 | 2613 ft | 271 kts | 182° |
| 2026-04-23 07:50 | 15.90926 | 108.20894 | 3296 ft | 275 kts | 182° |
| 2026-04-23 07:50 | 15.89004 | 108.20787 | 3979 ft | 277 kts | 183° |
| 2026-04-23 07:51 | 15.87070 | 108.20680 | 4685 ft | 278 kts | 183° |
| 2026-04-23 07:51 | 15.85136 | 108.20574 | 5398 ft | 279 kts | 183° |
| 2026-04-23 07:51 | 15.83193 | 108.20467 | 6150 ft | 280 kts | 184° |
| 2026-04-23 07:51 | 15.81240 | 108.20360 | 6851 ft | 281 kts | 184° |
| 2026-04-23 07:52 | 15.79279 | 108.20251 | 7535 ft | 282 kts | 184° |
| 2026-04-23 07:52 | 15.77307 | 108.20142 | 8227 ft | 285 kts | 183° |
| 2026-04-23 07:52 | 15.75325 | 108.20034 | 8863 ft | 286 kts | 183° |
| 2026-04-23 07:52 | 15.73327 | 108.19924 | 9494 ft | 289 kts | 183° |
| 2026-04-23 07:53 | 15.71315 | 108.19815 | 10076 ft | 291 kts | 183° |
| 2026-04-23 07:53 | 15.69276 | 108.19704 | 10497 ft | 300 kts | 183° |
| 2026-04-23 07:53 | 15.67114 | 108.19585 | 10613 ft | 319 kts | 184° |
| 2026-04-23 07:53 | 15.65619 | 108.19501 | 10698 ft | 332 kts | 183° |
| 2026-04-23 07:54 | 15.63255 | 108.19367 | 10885 ft | 347 kts | 183° |
| 2026-04-23 07:54 | 15.60027 | 108.19185 | 11492 ft | 354 kts | 184° |
| 2026-04-23 07:54 | 15.57556 | 108.19048 | 12002 ft | 358 kts | 184° |
| 2026-04-23 07:54 | 15.55868 | 108.18956 | 12355 ft | 360 kts | 184° |
| 2026-04-23 07:55 | 15.52533 | 108.18772 | 13019 ft | 365 kts | 184° |
| 2026-04-23 07:55 | 15.50814 | 108.18677 | 13370 ft | 367 kts | 184° |
| 2026-04-23 07:55 | 15.48249 | 108.18553 | 13851 ft | 371 kts | 183° |
| 2026-04-23 07:55 | 15.45658 | 108.18478 | 14324 ft | 374 kts | 182° |
| 2026-04-23 07:56 | 15.43072 | 108.18432 | 14791 ft | 377 kts | 181° |
| 2026-04-23 07:56 | 15.40444 | 108.18396 | 15266 ft | 379 kts | 181° |
| 2026-04-23 07:56 | 15.37794 | 108.18359 | 15723 ft | 382 kts | 181° |
| 2026-04-23 07:56 | 15.35124 | 108.18317 | 16179 ft | 384 kts | 182° |
| 2026-04-23 07:57 | 15.32440 | 108.18266 | 16641 ft | 387 kts | 182° |
| 2026-04-23 07:57 | 15.29742 | 108.18207 | 17071 ft | 390 kts | 182° |
| 2026-04-23 07:57 | 15.27017 | 108.18146 | 17503 ft | 392 kts | 182° |
| 2026-04-23 07:57 | 15.24286 | 108.18083 | 17922 ft | 395 kts | 182° |
| 2026-04-23 07:58 | 15.21532 | 108.18022 | 18297 ft | 397 kts | 182° |
| 2026-04-23 07:58 | 15.18753 | 108.17961 | 18659 ft | 399 kts | 182° |
| 2026-04-23 07:58 | 15.15965 | 108.17899 | 19003 ft | 402 kts | 181° |
| 2026-04-23 07:58 | 15.13158 | 108.17838 | 19349 ft | 404 kts | 181° |
| 2026-04-23 07:59 | 15.10340 | 108.17777 | 19686 ft | 406 kts | 181° |
| 2026-04-23 07:59 | 15.07509 | 108.17717 | 20016 ft | 408 kts | 181° |
| 2026-04-23 07:59 | 15.04658 | 108.17655 | 20347 ft | 411 kts | 181° |
| 2026-04-23 07:59 | 15.01790 | 108.17592 | 20674 ft | 413 kts | 181° |
| 2026-04-23 08:00 | 14.98909 | 108.17529 | 20999 ft | 415 kts | 181° |
| 2026-04-23 08:00 | 14.96014 | 108.17465 | 21319 ft | 417 kts | 181° |
| 2026-04-23 08:00 | 14.93098 | 108.17400 | 21636 ft | 420 kts | 181° |
| 2026-04-23 08:00 | 14.90168 | 108.17334 | 21950 ft | 422 kts | 181° |
| 2026-04-23 08:01 | 14.87224 | 108.17270 | 22258 ft | 424 kts | 181° |
| 2026-04-23 08:01 | 14.84270 | 108.17206 | 22558 ft | 426 kts | 181° |
| 2026-04-23 08:01 | 14.81295 | 108.17141 | 22862 ft | 428 kts | 181° |
| 2026-04-23 08:01 | 14.78311 | 108.17073 | 23156 ft | 430 kts | 181° |
| 2026-04-23 08:02 | 14.75303 | 108.17005 | 23439 ft | 433 kts | 181° |
| 2026-04-23 08:02 | 14.72327 | 108.16940 | 23666 ft | 435 kts | 181° |
| 2026-04-23 08:02 | 14.69304 | 108.16875 | 23902 ft | 437 kts | 181° |
| 2026-04-23 08:02 | 14.66249 | 108.16807 | 24144 ft | 439 kts | 181° |
| 2026-04-23 08:03 | 14.63191 | 108.16738 | 24397 ft | 441 kts | 181° |
| 2026-04-23 08:03 | 14.60120 | 108.16670 | 24636 ft | 442 kts | 181° |
| 2026-04-23 08:03 | 14.57311 | 108.16608 | 24851 ft | 444 kts | 181° |
| 2026-04-23 08:03 | 14.54117 | 108.16535 | 25097 ft | 446 kts | 181° |
| 2026-04-23 08:04 | 14.51010 | 108.16464 | 25335 ft | 448 kts | 181° |
| 2026-04-23 08:04 | 14.47877 | 108.16397 | 25575 ft | 450 kts | 180° |
| 2026-04-23 08:04 | 14.44741 | 108.16330 | 25799 ft | 452 kts | 180° |
| 2026-04-23 08:04 | 14.41586 | 108.16262 | 26030 ft | 454 kts | 180° |
| 2026-04-23 08:05 | 14.38419 | 108.16193 | 26257 ft | 456 kts | 180° |
| 2026-04-23 08:05 | 14.35285 | 108.16124 | 26475 ft | 457 kts | 180° |
| 2026-04-23 08:05 | 14.32097 | 108.16053 | 26690 ft | 459 kts | 180° |
| 2026-04-23 08:05 | 14.28894 | 108.15980 | 26907 ft | 461 kts | 180° |
| 2026-04-23 08:06 | 14.25678 | 108.15908 | 27105 ft | 463 kts | 180° |
| 2026-04-23 08:06 | 14.22450 | 108.15837 | 27338 ft | 465 kts | 180° |
| 2026-04-23 08:06 | 14.19202 | 108.15769 | 27557 ft | 467 kts | 180° |
| 2026-04-23 08:06 | 14.15948 | 108.15703 | 27760 ft | 468 kts | 180° |
| 2026-04-23 08:07 | 14.12683 | 108.15636 | 27986 ft | 470 kts | 180° |
| 2026-04-23 08:07 | 14.09408 | 108.15569 | 28205 ft | 471 kts | 180° |
| 2026-04-23 08:07 | 14.06122 | 108.15499 | 28397 ft | 473 kts | 180° |
| 2026-04-23 08:07 | 14.02863 | 108.15429 | 28612 ft | 474 kts | 180° |
| 2026-04-23 08:08 | 13.99615 | 108.15359 | 28815 ft | 476 kts | 180° |
| 2026-04-23 08:08 | 13.96300 | 108.15286 | 29022 ft | 477 kts | 180° |
| 2026-04-23 08:08 | 13.92972 | 108.15211 | 29226 ft | 479 kts | 180° |
| 2026-04-23 08:08 | 13.89674 | 108.15137 | 29430 ft | 480 kts | 180° |
| 2026-04-23 08:09 | 13.86321 | 108.15063 | 29625 ft | 482 kts | 180° |
| 2026-04-23 08:09 | 13.82966 | 108.14992 | 29843 ft | 483 kts | 180° |
| 2026-04-23 08:09 | 13.79609 | 108.14921 | 30096 ft | 482 kts | 180° |
| 2026-04-23 08:09 | 13.76254 | 108.14848 | 30381 ft | 481 kts | 180° |
| 2026-04-23 08:10 | 13.72906 | 108.14771 | 30669 ft | 480 kts | 180° |
| 2026-04-23 08:10 | 13.69573 | 108.14696 | 30956 ft | 478 kts | 180° |
| 2026-04-23 08:10 | 13.62932 | 108.14552 | 31530 ft | 476 kts | 180° |
| 2026-04-23 08:11 | 13.59618 | 108.14483 | 31819 ft | 475 kts | 180° |
| 2026-04-23 08:11 | 13.56311 | 108.14412 | 32108 ft | 474 kts | 180° |
| 2026-04-23 08:11 | 13.53024 | 108.14337 | 32402 ft | 473 kts | 180° |
| 2026-04-23 08:11 | 13.50006 | 108.14266 | 32657 ft | 472 kts | 180° |
| 2026-04-23 08:12 | 13.46762 | 108.14190 | 32946 ft | 471 kts | 180° |
| 2026-04-23 08:12 | 13.43488 | 108.14114 | 33223 ft | 470 kts | 180° |
| 2026-04-23 08:12 | 13.40215 | 108.14042 | 33500 ft | 469 kts | 180° |
| 2026-04-23 08:12 | 13.36952 | 108.13973 | 33785 ft | 468 kts | 180° |
| 2026-04-23 08:13 | 13.33691 | 108.13904 | 34031 ft | 468 kts | 180° |
| 2026-04-23 08:13 | 13.30432 | 108.13832 | 34254 ft | 468 kts | 180° |
| 2026-04-23 08:13 | 13.27175 | 108.13758 | 34481 ft | 467 kts | 180° |
| 2026-04-23 08:13 | 13.23921 | 108.13678 | 34701 ft | 467 kts | 180° |
| 2026-04-23 08:14 | 13.21768 | 108.13623 | 34838 ft | 467 kts | 180° |
| 2026-04-23 08:14 | 13.19314 | 108.13563 | 35009 ft | 467 kts | 180° |
| 2026-04-23 08:14 | 13.16066 | 108.13486 | 35203 ft | 467 kts | 180° |
| 2026-04-23 08:14 | 13.12819 | 108.13410 | 35422 ft | 467 kts | 180° |
| 2026-04-23 08:15 | 13.09569 | 108.13333 | 35627 ft | 467 kts | 180° |
| 2026-04-23 08:15 | 13.06365 | 108.13256 | 35749 ft | 467 kts | 180° |
| 2026-04-23 08:15 | 13.01300 | 108.13133 | 35771 ft | 465 kts | 180° |
| 2026-04-23 08:16 | 12.94815 | 108.12977 | 35772 ft | 464 kts | 180° |
| 2026-04-23 08:16 | 12.88603 | 108.12831 | 35767 ft | 464 kts | 180° |
| 2026-04-23 08:17 | 12.82145 | 108.12678 | 35767 ft | 464 kts | 180° |
| 2026-04-23 08:17 | 12.75690 | 108.12522 | 35767 ft | 464 kts | 180° |
| 2026-04-23 08:18 | 12.69229 | 108.12366 | 35769 ft | 464 kts | 180° |
| 2026-04-23 08:18 | 12.62754 | 108.12212 | 35772 ft | 464 kts | 180° |
| 2026-04-23 08:19 | 12.56288 | 108.12083 | 35776 ft | 464 kts | 180° |
| 2026-04-23 08:19 | 12.49828 | 108.11966 | 35774 ft | 464 kts | 180° |
| 2026-04-23 08:20 | 12.43366 | 108.11845 | 35781 ft | 464 kts | 180° |
| 2026-04-23 08:20 | 12.36913 | 108.11721 | 35787 ft | 464 kts | 180° |
| 2026-04-23 08:21 | 12.30465 | 108.11593 | 35796 ft | 463 kts | 180° |
| 2026-04-23 08:21 | 12.27241 | 108.11525 | 35694 ft | 464 kts | 180° |
| 2026-04-23 08:21 | 12.24016 | 108.11456 | 35454 ft | 463 kts | 180° |
| 2026-04-23 08:22 | 12.20793 | 108.11389 | 35220 ft | 463 kts | 180° |
| 2026-04-23 08:22 | 12.17574 | 108.11323 | 34981 ft | 463 kts | 180° |
| 2026-04-23 08:22 | 12.14345 | 108.11257 | 34279 ft | 467 kts | 180° |
| 2026-04-23 08:22 | 12.11078 | 108.11195 | 33407 ft | 473 kts | 180° |
| 2026-04-23 08:23 | 12.07783 | 108.11133 | 32833 ft | 471 kts | 180° |
| 2026-04-23 08:23 | 12.04516 | 108.11071 | 32253 ft | 469 kts | 180° |
| 2026-04-23 08:23 | 12.01256 | 108.11007 | 31691 ft | 467 kts | 180° |
| 2026-04-23 08:23 | 11.98014 | 108.10940 | 31106 ft | 466 kts | 181° |
| 2026-04-23 08:24 | 11.94790 | 108.10671 | 30537 ft | 464 kts | 190° |
| 2026-04-23 08:24 | 11.91691 | 108.09804 | 29983 ft | 462 kts | 201° |
| 2026-04-23 08:24 | 11.88814 | 108.08367 | 29364 ft | 459 kts | 212° |
| 2026-04-23 08:24 | 11.86241 | 108.06454 | 28819 ft | 455 kts | 218° |
| 2026-04-23 08:25 | 11.83768 | 108.04468 | 28271 ft | 451 kts | 218° |
| 2026-04-23 08:25 | 11.81305 | 108.02500 | 27734 ft | 447 kts | 218° |
| 2026-04-23 08:25 | 11.78864 | 108.00557 | 27203 ft | 444 kts | 218° |
| 2026-04-23 08:25 | 11.76439 | 107.98629 | 26680 ft | 440 kts | 218° |
| 2026-04-23 08:26 | 11.74033 | 107.96714 | 26174 ft | 436 kts | 218° |
| 2026-04-23 08:26 | 11.71652 | 107.94815 | 25682 ft | 433 kts | 218° |
| 2026-04-23 08:26 | 11.69293 | 107.92930 | 25195 ft | 429 kts | 218° |
| 2026-04-23 08:26 | 11.66951 | 107.91056 | 24719 ft | 426 kts | 218° |
| 2026-04-23 08:27 | 11.64628 | 107.89199 | 24248 ft | 422 kts | 218° |
| 2026-04-23 08:27 | 11.62319 | 107.87356 | 23763 ft | 419 kts | 218° |
| 2026-04-23 08:27 | 11.60029 | 107.85530 | 23264 ft | 416 kts | 218° |
| 2026-04-23 08:27 | 11.57759 | 107.83723 | 22757 ft | 411 kts | 218° |
| 2026-04-23 08:28 | 11.55516 | 107.81940 | 22287 ft | 406 kts | 218° |
| 2026-04-23 08:28 | 11.53323 | 107.80194 | 21821 ft | 402 kts | 218° |
| 2026-04-23 08:28 | 11.51130 | 107.78447 | 21345 ft | 398 kts | 218° |
| 2026-04-23 08:28 | 11.48962 | 107.76720 | 20873 ft | 394 kts | 218° |
| 2026-04-23 08:29 | 11.46808 | 107.75004 | 20395 ft | 391 kts | 218° |
| 2026-04-23 08:29 | 11.44672 | 107.73303 | 19922 ft | 388 kts | 218° |
| 2026-04-23 08:29 | 11.42550 | 107.71613 | 19443 ft | 386 kts | 218° |
| 2026-04-23 08:29 | 11.40441 | 107.69937 | 18977 ft | 384 kts | 218° |
| 2026-04-23 08:30 | 11.38339 | 107.68269 | 18511 ft | 382 kts | 217° |
| 2026-04-23 08:30 | 11.36241 | 107.66602 | 18039 ft | 381 kts | 218° |
| 2026-04-23 08:30 | 11.34159 | 107.64945 | 17525 ft | 379 kts | 218° |
| 2026-04-23 08:30 | 11.32093 | 107.63300 | 17079 ft | 376 kts | 218° |
| 2026-04-23 08:31 | 11.30039 | 107.61665 | 16629 ft | 373 kts | 218° |
| 2026-04-23 08:31 | 11.27998 | 107.60041 | 16175 ft | 370 kts | 218° |
| 2026-04-23 08:31 | 11.25975 | 107.58432 | 15741 ft | 368 kts | 218° |
| 2026-04-23 08:31 | 11.23955 | 107.56830 | 15293 ft | 366 kts | 218° |
| 2026-04-23 08:32 | 11.21944 | 107.55237 | 14851 ft | 364 kts | 218° |
| 2026-04-23 08:32 | 11.19975 | 107.53676 | 14418 ft | 362 kts | 218° |
| 2026-04-23 08:32 | 11.17990 | 107.52100 | 13982 ft | 361 kts | 218° |
| 2026-04-23 08:32 | 11.16015 | 107.50531 | 13518 ft | 360 kts | 218° |
| 2026-04-23 08:33 | 11.14045 | 107.48967 | 13058 ft | 358 kts | 218° |
| 2026-04-23 08:33 | 11.12086 | 107.47413 | 12608 ft | 355 kts | 218° |
| 2026-04-23 08:33 | 11.10139 | 107.45868 | 12168 ft | 353 kts | 218° |
| 2026-04-23 08:33 | 11.08205 | 107.44331 | 11711 ft | 351 kts | 218° |
| 2026-04-23 08:34 | 11.06278 | 107.42802 | 11273 ft | 350 kts | 217° |
| 2026-04-23 08:34 | 11.04370 | 107.41289 | 10985 ft | 343 kts | 217° |
| 2026-04-23 08:34 | 11.02579 | 107.39756 | 10860 ft | 331 kts | 226° |
| 2026-04-23 08:34 | 11.01258 | 107.37891 | 10745 ft | 320 kts | 242° |
| 2026-04-23 08:35 | 11.00696 | 107.36525 | 10671 ft | 313 kts | 252° |
| 2026-04-23 08:35 | 11.00110 | 107.34543 | 10419 ft | 308 kts | 253° |
| 2026-04-23 08:35 | 10.99500 | 107.32461 | 10087 ft | 306 kts | 253° |
| 2026-04-23 08:35 | 10.98692 | 107.29713 | 9648 ft | 303 kts | 252° |
| 2026-04-23 08:36 | 10.98087 | 107.27664 | 9340 ft | 300 kts | 252° |
| 2026-04-23 08:36 | 10.97292 | 107.25723 | 9071 ft | 295 kts | 234° |
| 2026-04-23 08:36 | 10.96400 | 107.24690 | 8907 ft | 293 kts | 218° |
| 2026-04-23 08:36 | 10.94634 | 107.23711 | 8857 ft | 288 kts | 194° |
| 2026-04-23 08:37 | 10.92640 | 107.23514 | 8983 ft | 291 kts | 173° |
| 2026-04-23 08:37 | 10.90626 | 107.23777 | 9007 ft | 292 kts | 171° |
| 2026-04-23 08:37 | 10.88612 | 107.24060 | 9014 ft | 292 kts | 171° |
| 2026-04-23 08:37 | 10.86589 | 107.24251 | 9014 ft | 292 kts | 181° |
| 2026-04-23 08:38 | 10.84569 | 107.24000 | 9018 ft | 293 kts | 189° |
| 2026-04-23 08:38 | 10.82553 | 107.23645 | 9013 ft | 293 kts | 189° |
| 2026-04-23 08:38 | 10.80541 | 107.23293 | 9010 ft | 293 kts | 189° |
| 2026-04-23 08:38 | 10.78530 | 107.22942 | 9013 ft | 293 kts | 189° |
| 2026-04-23 08:39 | 10.77204 | 107.22692 | 9009 ft | 293 kts | 193° |
| 2026-04-23 08:39 | 10.75577 | 107.22137 | 9016 ft | 294 kts | 204° |
| 2026-04-23 08:39 | 10.73753 | 107.21196 | 9016 ft | 294 kts | 207° |
| 2026-04-23 08:39 | 10.71936 | 107.20232 | 9019 ft | 294 kts | 207° |
| 2026-04-23 08:40 | 10.70121 | 107.19266 | 9022 ft | 294 kts | 207° |
| 2026-04-23 08:40 | 10.68309 | 107.18299 | 9017 ft | 294 kts | 207° |
| 2026-04-23 08:40 | 10.66603 | 107.17155 | 9017 ft | 295 kts | 221° |
| 2026-04-23 08:40 | 10.65178 | 107.15657 | 9017 ft | 295 kts | 227° |
| 2026-04-23 08:41 | 10.63790 | 107.14114 | 9020 ft | 295 kts | 227° |
| 2026-04-23 08:41 | 10.62398 | 107.12578 | 9015 ft | 295 kts | 227° |
| 2026-04-23 08:41 | 10.61006 | 107.11042 | 9020 ft | 295 kts | 226° |
| 2026-04-23 08:41 | 10.59611 | 107.09504 | 9027 ft | 295 kts | 227° |
| 2026-04-23 08:42 | 10.58428 | 107.07800 | 9021 ft | 296 kts | 242° |
| 2026-04-23 08:42 | 10.57647 | 107.05926 | 9016 ft | 296 kts | 248° |
| 2026-04-23 08:42 | 10.56906 | 107.04002 | 9016 ft | 296 kts | 248° |
| 2026-04-23 08:42 | 10.56175 | 107.02039 | 9004 ft | 297 kts | 253° |
| 2026-04-23 08:43 | 10.56010 | 106.99966 | 9020 ft | 297 kts | 278° |
| 2026-04-23 08:43 | 10.56710 | 106.98010 | 9014 ft | 297 kts | 303° |
| 2026-04-23 08:43 | 10.58138 | 106.96504 | 8625 ft | 298 kts | 329° |
| 2026-04-23 08:43 | 10.59980 | 106.95784 | 8286 ft | 293 kts | 350° |
| 2026-04-23 08:44 | 10.61980 | 106.95401 | 7942 ft | 291 kts | 350° |
| 2026-04-23 08:44 | 10.63963 | 106.95019 | 7587 ft | 289 kts | 350° |
| 2026-04-23 08:44 | 10.65934 | 106.94636 | 7242 ft | 287 kts | 350° |
| 2026-04-23 08:44 | 10.67888 | 106.94253 | 6899 ft | 285 kts | 350° |
| 2026-04-23 08:45 | 10.69834 | 106.93868 | 6566 ft | 285 kts | 350° |
| 2026-04-23 08:45 | 10.71786 | 106.93480 | 6215 ft | 286 kts | 350° |
| 2026-04-23 08:45 | 10.73745 | 106.93095 | 5859 ft | 286 kts | 350° |
| 2026-04-23 08:45 | 10.75697 | 106.92712 | 5519 ft | 285 kts | 349° |
| 2026-04-23 08:46 | 10.77629 | 106.92333 | 5182 ft | 282 kts | 349° |
| 2026-04-23 08:46 | 10.79545 | 106.91956 | 4850 ft | 279 kts | 349° |
| 2026-04-23 08:46 | 10.81417 | 106.91586 | 4703 ft | 268 kts | 349° |
| 2026-04-23 08:46 | 10.83207 | 106.91230 | 4561 ft | 254 kts | 349° |
| 2026-04-23 08:47 | 10.84870 | 106.90816 | 4168 ft | 248 kts | 336° |
| 2026-04-23 08:47 | 10.86280 | 106.89874 | 4045 ft | 241 kts | 314° |
| 2026-04-23 08:47 | 10.87218 | 106.88524 | 3798 ft | 233 kts | 293° |
| 2026-04-23 08:47 | 10.87637 | 106.86904 | 3225 ft | 241 kts | 276° |
| 2026-04-23 08:48 | 10.87870 | 106.85368 | 3036 ft | 235 kts | 276° |
| 2026-04-23 08:48 | 10.88122 | 106.83773 | 2984 ft | 221 kts | 276° |
| 2026-04-23 08:48 | 10.88275 | 106.82321 | 2925 ft | 192 kts | 265° |
| 2026-04-23 08:48 | 10.88046 | 106.81061 | 2853 ft | 176 kts | 245° |
| 2026-04-23 08:49 | 10.87621 | 106.79929 | 2674 ft | 169 kts | 244° |
| 2026-04-23 08:49 | 10.87201 | 106.78819 | 2475 ft | 167 kts | 244° |
| 2026-04-23 08:49 | 10.86786 | 106.77721 | 2285 ft | 166 kts | 244° |
| 2026-04-23 08:49 | 10.86371 | 106.76621 | 2097 ft | 168 kts | 244° |
| 2026-04-23 08:50 | 10.85956 | 106.75519 | 1867 ft | 166 kts | 245° |
| 2026-04-23 08:50 | 10.85543 | 106.74424 | 1645 ft | 166 kts | 244° |
| 2026-04-23 08:50 | 10.85146 | 106.73369 | 1445 ft | 156 kts | 245° |
| 2026-04-23 08:50 | 10.84764 | 106.72358 | 1238 ft | 154 kts | 244° |
| 2026-04-23 08:51 | 10.84376 | 106.71330 | 1033 ft | 156 kts | 245° |
| 2026-04-23 08:51 | 10.83993 | 106.70315 | 854 ft | 153 kts | 244° |
| 2026-04-23 08:51 | 10.83617 | 106.69317 | 674 ft | 149 kts | 245° |
| 2026-04-23 08:51 | 10.83246 | 106.68335 | 501 ft | 148 kts | 245° |
| 2026-04-23 08:52 | 10.82879 | 106.67358 | 274 ft | 154 kts | 246° |
| 2026-04-23 08:52 | 10.82499 | 106.66336 | 95 ft | 154 kts | 244° |
| 2026-04-23 08:52 | 10.82113 | 106.65366 | 40 ft | 136 kts | 249° |
| 2026-04-23 08:52 | 10.81864 | 106.64667 | 39 ft | 68 kts | 251° |
| 2026-04-23 08:53 | 10.81791 | 106.64492 | 40 ft | 19 kts | 240° |
| 2026-04-23 08:53 | 10.81711 | 106.64388 | 39 ft | 18 kts | 225° |
| 2026-04-23 08:53 | 10.81623 | 106.64312 | 38 ft | 14 kts | 217° |
| 2026-04-23 08:53 | 10.81539 | 106.64291 | 37 ft | 12 kts | 168° |
| 2026-04-23 08:54 | 10.81460 | 106.64320 | 39 ft | 12 kts | 160° |
| 2026-04-23 08:54 | 10.81385 | 106.64349 | 40 ft | 11 kts | 159° |
| 2026-04-23 08:54 | 10.81312 | 106.64377 | 39 ft | 11 kts | 159° |
| 2026-04-23 08:54 | 10.81255 | 106.64418 | 39 ft | 10 kts | 117° |
| 2026-04-23 08:55 | 10.81261 | 106.64477 | 40 ft | 8 kts | 70° |
| 2026-04-23 08:55 | 10.81280 | 106.64526 | 40 ft | 7 kts | 70° |
| 2026-04-23 08:55 | 10.81295 | 106.64569 | 40 ft | 6 kts | 69° |
| 2026-04-23 08:55 | 10.81309 | 106.64606 | 40 ft | 6 kts | 69° |
| 2026-04-23 08:56 | 10.81337 | 106.64680 | 39 ft | 15 kts | 69° |
| 2026-04-23 08:56 | 10.81374 | 106.64778 | 40 ft | 15 kts | 69° |
| 2026-04-23 08:56 | 10.81410 | 106.64872 | 40 ft | 14 kts | 69° |
| 2026-04-23 08:56 | 10.81443 | 106.64962 | 40 ft | 13 kts | 69° |
| 2026-04-23 08:57 | 10.81477 | 106.65050 | 38 ft | 13 kts | 69° |
| 2026-04-23 08:57 | 10.81509 | 106.65135 | 40 ft | 13 kts | 69° |
| 2026-04-23 08:57 | 10.81540 | 106.65217 | 39 ft | 12 kts | 69° |
| 2026-04-23 08:57 | 10.81572 | 106.65302 | 39 ft | 14 kts | 69° |
| 2026-04-23 08:58 | 10.81606 | 106.65393 | 39 ft | 14 kts | 69° |
| 2026-04-23 08:58 | 10.81640 | 106.65481 | 39 ft | 13 kts | 69° |
| 2026-04-23 08:58 | 10.81671 | 106.65564 | 39 ft | 12 kts | 69° |
| 2026-04-23 08:58 | 10.81701 | 106.65643 | 38 ft | 12 kts | 69° |
| 2026-04-23 08:59 | 10.81730 | 106.65720 | 39 ft | 11 kts | 69° |
| 2026-04-23 08:59 | 10.81757 | 106.65793 | 39 ft | 11 kts | 69° |
| 2026-04-23 08:59 | 10.81783 | 106.65862 | 38 ft | 10 kts | 69° |
| 2026-04-23 08:59 | 10.81807 | 106.65925 | 37 ft | 9 kts | 69° |
| 2026-04-23 09:00 | 10.81829 | 106.65983 | 39 ft | 8 kts | 70° |
| 2026-04-23 09:00 | 10.81831 | 106.66037 | 39 ft | 8 kts | 117° |
| 2026-04-23 09:00 | 10.81789 | 106.66062 | 39 ft | 7 kts | 170° |
| 2026-04-23 09:00 | 10.81743 | 106.66060 | 39 ft | 6 kts | 184° |
| 2026-04-23 09:01 | 10.81700 | 106.66056 | 39 ft | 6 kts | 186° |
| 2026-04-23 09:01 | 10.81659 | 106.66052 | 39 ft | 6 kts | 185° |
| 2026-04-23 09:01 | 10.81606 | 106.66047 | 39 ft | 7 kts | 185° |
| 2026-04-23 09:01 | 10.81563 | 106.66043 | 39 ft | 6 kts | 182° |
| 2026-04-23 09:02 | 10.81535 | 106.66063 | 39 ft | 5 kts | 122° |
| 2026-04-23 09:02 | 10.81527 | 106.66093 | 38 ft | 4 kts | 92° |
| 2026-04-23 09:02 | 10.81524 | 106.66118 | 39 ft | 3 kts | 96° |
| 2026-04-23 09:02 | 10.81523 | 106.66133 | 39 ft | 0 kts | 96° |